Time;durP1;ratioP1;P1;durP2;ratioP2;P2;SDS_P1;SDS_P2;PMS_P1;PMS_P2;Temp;Humidity;BMP_temperature;BMP_pressure;BME280_temperature;BME280_humidity;BME280_pressure;Samples;Min_cycle;Max_cycle;Signal;HPM_P1;HPM_P2
2022/07/21 00:01:13;;;;;;;18.03;12.63;;;;;21.90;101281.00;;;;5075320;28;20871;-74
2022/07/21 00:04:00;;;;;;;15.17;11.70;;;;;21.80;101272.00;;;;5078535;28;20226;-73
2022/07/21 00:06:47;;;;;;;18.50;13.40;;;;;21.80;101266.00;;;;5076755;28;20233;-72
2022/07/21 00:09:35;;;;;;;17.17;12.33;;;;;21.80;101269.00;;;;5084610;28;20297;-74
2022/07/21 00:12:21;;;;;;;18.57;13.37;;;;;21.80;101265.00;;;;5084086;28;20257;-75
2022/07/21 00:15:09;;;;;;;16.47;11.40;;;;;21.80;101262.00;;;;5069395;28;20868;-73
2022/07/21 00:18:00;;;;;;;15.93;10.27;;;;;21.70;101260.00;;;;5073203;28;20628;-73
2022/07/21 00:20:47;;;;;;;12.60;9.83;;;;;21.70;101266.00;;;;5063521;28;20864;-72
2022/07/21 00:23:33;;;;;;;12.97;10.03;;;;;21.60;101260.00;;;;5066010;28;20257;-73
2022/07/21 00:26:20;;;;;;;11.90;9.50;;;;;21.50;101265.00;;;;5061295;28;20308;-72
2022/07/21 00:29:06;;;;;;;14.40;9.20;;;;;21.60;101264.00;;;;5058521;28;20310;-75
2022/07/21 00:31:53;;;;;;;11.20;8.67;;;;;21.50;101258.00;;;;5056511;28;20768;-73
2022/07/21 00:34:40;;;;;;;11.67;8.80;;;;;21.40;101258.00;;;;5064599;28;20300;-74
2022/07/21 00:37:27;;;;;;;11.37;8.90;;;;;21.40;101260.00;;;;5058689;28;20273;-72
2022/07/21 00:40:15;;;;;;;10.23;8.13;;;;;21.40;101254.00;;;;5064405;28;20788;-73
2022/07/21 00:43:01;;;;;;;12.23;7.90;;;;;21.40;101263.00;;;;5060918;28;20276;-73
2022/07/21 00:45:47;;;;;;;11.90;8.73;;;;;21.40;101259.00;;;;5063244;28;20332;-72
2022/07/21 00:48:34;;;;;;;10.87;8.67;;;;;21.30;101261.00;;;;5060788;28;20278;-74
2022/07/21 00:51:21;;;;;;;13.23;8.43;;;;;21.20;101259.00;;;;5078448;28;20227;-74
2022/07/21 00:54:08;;;;;;;12.47;8.90;;;;;21.20;101237.00;;;;5050583;28;20741;-75
2022/07/21 00:56:54;;;;;;;11.43;8.87;;;;;21.20;101235.00;;;;5067393;28;20621;-74
2022/07/21 00:59:40;;;;;;;10.83;8.73;;;;;21.30;101243.00;;;;5064451;28;20752;-74
2022/07/21 01:02:28;;;;;;;11.13;8.80;;;;;21.30;101236.00;;;;5060276;28;20245;-74
2022/07/21 01:05:15;;;;;;;14.37;9.23;;;;;21.20;101237.00;;;;5061398;28;20232;-73
2022/07/21 01:08:04;;;;;;;10.90;9.07;;;;;21.20;101224.00;;;;5066230;28;22039;-74
2022/07/21 01:10:50;;;;;;;12.43;9.13;;;;;21.20;101237.00;;;;5080114;28;20233;-73
2022/07/21 01:13:41;;;;;;;12.30;9.50;;;;;21.20;101245.00;;;;5079376;28;20295;-75
2022/07/21 01:16:27;;;;;;;11.10;9.00;;;;;21.20;101245.00;;;;5080503;28;20229;-75
2022/07/21 01:19:13;;;;;;;11.23;8.73;;;;;21.20;101253.00;;;;5070884;28;20355;-75
2022/07/21 01:22:01;;;;;;;11.23;8.80;;;;;21.00;101253.00;;;;5078541;28;20245;-76
2022/07/21 01:24:47;;;;;;;14.40;9.03;;;;;21.00;101253.00;;;;5065828;28;20234;-75
2022/07/21 01:27:34;;;;;;;12.20;9.37;;;;;21.00;101261.00;;;;5064229;28;20753;-75
2022/07/21 01:30:20;;;;;;;10.80;9.03;;;;;21.00;101264.00;;;;5052431;28;20232;-75
2022/07/21 01:33:07;;;;;;;11.87;9.13;;;;;21.00;101257.00;;;;5062187;28;20221;-76
2022/07/21 01:35:53;;;;;;;14.70;8.80;;;;;20.90;101260.00;;;;5063397;28;20229;-76
2022/07/21 01:41:46;;;;;;;10.43;8.37;;;;;20.90;101263.00;;;;5054752;28;20236;-75
2022/07/21 01:44:32;;;;;;;13.27;9.60;;;;;20.90;101250.00;;;;5055718;28;20224;-75
2022/07/21 01:47:20;;;;;;;13.50;9.73;;;;;21.00;101255.00;;;;5075117;28;20259;-73
2022/07/21 01:50:07;;;;;;;16.67;10.13;;;;;20.90;101249.00;;;;5075937;28;20230;-73
2022/07/21 01:52:54;;;;;;;13.97;9.03;;;;;20.80;101254.00;;;;5068956;28;20232;-74
2022/07/21 01:55:42;;;;;;;13.17;9.67;;;;;20.90;101260.00;;;;5065881;28;20246;-74
2022/07/21 01:58:30;;;;;;;16.57;10.53;;;;;20.90;101254.00;;;;5062072;28;20229;-75
2022/07/21 02:01:16;;;;;;;11.83;9.40;;;;;20.70;101261.00;;;;5053110;28;20224;-75
2022/07/21 02:04:05;;;;;;;15.17;10.20;;;;;20.70;101257.00;;;;5064894;28;20285;-75
2022/07/21 02:06:52;;;;;;;15.17;10.80;;;;;20.80;101261.00;;;;5060385;28;20360;-75
2022/07/21 02:09:38;;;;;;;13.67;10.53;;;;;20.80;101259.00;;;;5061893;28;20367;-75
2022/07/21 02:12:26;;;;;;;15.67;10.27;;;;;20.80;101254.00;;;;5058963;28;20230;-75
2022/07/21 02:15:12;;;;;;;14.13;11.07;;;;;20.90;101250.00;;;;5068414;28;20224;-74
2022/07/21 02:18:00;;;;;;;14.63;11.17;;;;;20.90;101246.00;;;;5069642;28;20223;-75
2022/07/21 02:20:48;;;;;;;14.70;10.70;;;;;20.90;101248.00;;;;5073107;28;20237;-74
2022/07/21 02:23:35;;;;;;;14.37;10.73;;;;;20.90;101249.00;;;;5064776;28;20227;-75
2022/07/21 02:26:21;;;;;;;16.13;11.93;;;;;20.90;101231.00;;;;5057130;28;20711;-73
2022/07/21 02:29:09;;;;;;;15.43;11.13;;;;;20.90;101235.00;;;;5062274;28;20300;-73
2022/07/21 02:31:55;;;;;;;15.47;10.83;;;;;20.80;101234.00;;;;5059309;28;20713;-73
2022/07/21 02:34:41;;;;;;;15.53;11.10;;;;;20.90;101232.00;;;;5079352;28;20296;-73
2022/07/21 02:37:28;;;;;;;17.03;10.73;;;;;20.80;101233.00;;;;5083439;28;20227;-73
2022/07/21 02:40:14;;;;;;;12.37;9.77;;;;;20.80;101224.00;;;;5089560;28;20254;-73
2022/07/21 02:43:01;;;;;;;12.50;10.03;;;;;20.70;101226.00;;;;5084977;28;20231;-73
2022/07/21 02:45:48;;;;;;;12.63;9.67;;;;;20.70;101236.00;;;;5064870;28;20224;-73
2022/07/21 02:48:35;;;;;;;12.73;9.80;;;;;20.60;101236.00;;;;5072006;28;20224;-73
2022/07/21 02:51:21;;;;;;;12.17;9.47;;;;;20.70;101240.00;;;;5061524;28;20223;-75
2022/07/21 02:54:09;;;;;;;12.30;8.43;;;;;20.50;101245.00;;;;5076196;28;20223;-72
2022/07/21 02:56:55;;;;;;;10.97;8.33;;;;;20.60;101238.00;;;;5075707;28;20224;-71
2022/07/21 02:59:41;;;;;;;9.83;7.30;;;;;20.60;101240.00;;;;5079486;28;20223;-75
2022/07/21 03:02:29;;;;;;;9.27;7.13;;;;;20.50;101251.00;;;;5080730;28;20228;-75
2022/07/21 03:05:15;;;;;;;11.30;7.27;;;;;20.50;101251.00;;;;5084159;28;20358;-72
2022/07/21 03:08:02;;;;;;;10.23;7.57;;;;;20.50;101240.00;;;;5084181;28;20227;-75
2022/07/21 03:10:49;;;;;;;10.07;7.20;;;;;20.40;101237.00;;;;5083251;28;20876;-73
2022/07/21 03:13:36;;;;;;;11.20;7.90;;;;;20.30;101242.00;;;;5084847;28;20350;-73
2022/07/21 03:16:22;;;;;;;12.40;7.43;;;;;20.30;101248.00;;;;5072748;28;20297;-76
2022/07/21 03:19:10;;;;;;;10.33;7.60;;;;;20.20;101247.00;;;;5071702;28;20223;-75
2022/07/21 03:21:58;;;;;;;11.37;7.97;;;;;20.20;101246.00;;;;5063398;28;20239;-75
2022/07/21 03:24:44;;;;;;;12.57;9.07;;;;;20.20;101242.00;;;;5071172;28;20232;-75
2022/07/21 03:27:31;;;;;;;16.67;10.07;;;;;20.20;101235.00;;;;5077404;28;20285;-75
2022/07/21 03:30:18;;;;;;;13.57;9.50;;;;;20.20;101235.00;;;;5086005;28;20227;-74
2022/07/21 03:33:04;;;;;;;17.83;11.50;;;;;20.20;101230.00;;;;5078962;28;20712;-76
2022/07/21 03:35:52;;;;;;;17.87;12.20;;;;;20.30;101229.00;;;;5083224;28;20346;-72
2022/07/21 03:38:38;;;;;;;19.27;12.30;;;;;20.40;101215.00;;;;5083609;28;20235;-74
2022/07/21 03:41:24;;;;;;;14.53;10.43;;;;;20.20;101224.00;;;;5081142;28;20850;-75
2022/07/21 03:44:10;;;;;;;20.57;12.27;;;;;20.30;101207.00;;;;5087105;28;20246;-73
2022/07/21 03:46:58;;;;;;;19.13;12.80;;;;;20.30;101199.00;;;;5074749;28;20763;-74
2022/07/21 03:49:45;;;;;;;17.67;12.03;;;;;20.30;101194.00;;;;5080441;28;20236;-74
2022/07/21 03:52:33;;;;;;;18.97;12.37;;;;;20.20;101206.00;;;;5084279;28;20231;-74
2022/07/21 03:55:19;;;;;;;16.77;12.47;;;;;20.30;101212.00;;;;5079750;28;20294;-72
2022/07/21 03:58:07;;;;;;;19.63;12.77;;;;;20.20;101202.00;;;;5082081;28;20219;-73
2022/07/21 04:00:53;;;;;;;19.77;12.60;;;;;20.20;101206.00;;;;5075870;28;20264;-74
2022/07/21 04:03:40;;;;;;;21.03;13.53;;;;;20.30;101202.00;;;;5078435;28;20847;-73
2022/07/21 04:06:26;;;;;;;20.67;13.20;;;;;20.40;101203.00;;;;5092363;28;20227;-75
2022/07/21 04:09:14;;;;;;;20.70;13.60;;;;;20.40;101203.00;;;;5081680;28;20373;-74
2022/07/21 04:12:02;;;;;;;18.60;12.83;;;;;20.40;101204.00;;;;5085448;28;20236;-74
2022/07/21 04:14:48;;;;;;;20.87;13.03;;;;;20.30;101198.00;;;;5085728;28;20231;-74
2022/07/21 04:17:35;;;;;;;20.77;12.90;;;;;20.10;101187.00;;;;5082497;28;20346;-74
2022/07/21 04:20:22;;;;;;;18.63;13.20;;;;;20.20;101181.00;;;;5081753;28;20223;-72
2022/07/21 04:23:08;;;;;;;20.50;12.87;;;;;20.20;101175.00;;;;5086321;28;20230;-73
2022/07/21 04:25:56;;;;;;;19.93;12.70;;;;;20.20;101174.00;;;;5071670;27;20732;-73
2022/07/21 04:28:42;;;;;;;18.97;13.03;;;;;20.40;101171.00;;;;5071440;28;20232;-72
2022/07/21 04:31:29;;;;;;;19.50;13.40;;;;;20.30;101164.00;;;;5058833;28;20286;-74
2022/07/21 04:34:15;;;;;;;21.23;14.00;;;;;20.30;101156.00;;;;5061371;28;20747;-72
2022/07/21 04:37:01;;;;;;;18.90;12.77;;;;;20.30;101156.00;;;;5057458;28;20393;-74
2022/07/21 04:39:48;;;;;;;20.17;12.93;;;;;20.20;101155.00;;;;5063366;28;20260;-75
2022/07/21 04:42:40;;;;;;;20.17;13.17;;;;;20.30;101155.00;;;;5066017;28;20252;-72
2022/07/21 04:45:26;;;;;;;21.77;14.07;;;;;20.30;101162.00;;;;5063892;28;20224;-72
2022/07/21 04:48:13;;;;;;;18.47;13.57;;;;;20.30;101166.00;;;;5057844;28;20664;-73
2022/07/21 04:50:59;;;;;;;21.07;13.00;;;;;20.20;101165.00;;;;5075197;28;20721;-75
2022/07/21 04:53:45;;;;;;;22.47;13.73;;;;;20.30;101181.00;;;;5069100;28;20232;-76
2022/07/21 04:56:32;;;;;;;18.40;11.87;;;;;20.30;101184.00;;;;5069392;28;20248;-74
2022/07/21 04:59:20;;;;;;;16.87;11.80;;;;;20.30;101182.00;;;;5054496;28;20244;-76
2022/07/21 05:02:06;;;;;;;16.63;11.13;;;;;20.30;101187.00;;;;5068563;28;20240;-74
2022/07/21 05:04:53;;;;;;;19.53;11.37;;;;;20.20;101196.00;;;;5076578;28;20218;-75
2022/07/21 05:07:40;;;;;;;15.57;10.80;;;;;20.30;101201.00;;;;5055653;28;20301;-75
2022/07/21 05:10:26;;;;;;;16.63;10.63;;;;;20.30;101204.00;;;;5060210;28;20286;-72
2022/07/21 05:13:12;;;;;;;16.73;10.73;;;;;20.30;101197.00;;;;5062963;28;20648;-73
2022/07/21 05:16:00;;;;;;;14.73;10.17;;;;;20.40;101203.00;;;;5080521;28;20240;-72
2022/07/21 05:18:46;;;;;;;16.30;10.70;;;;;20.60;101191.00;;;;5083187;28;20227;-73
2022/07/21 05:21:33;;;;;;;15.77;10.20;;;;;20.50;101190.00;;;;5084571;28;20735;-73
2022/07/21 05:24:19;;;;;;;15.17;10.53;;;;;20.70;101190.00;;;;5058599;28;20704;-74
2022/07/21 05:27:06;;;;;;;18.13;11.10;;;;;20.50;101182.00;;;;5065063;28;20247;-74
2022/07/21 05:29:52;;;;;;;18.10;10.90;;;;;20.60;101180.00;;;;5061778;28;20232;-74
2022/07/21 05:32:40;;;;;;;17.40;12.13;;;;;20.60;101188.00;;;;5055010;28;20318;-73
2022/07/21 05:35:33;;;;;;;18.90;12.00;;;;;20.60;101186.00;;;;5073713;28;20243;-73
2022/07/21 05:38:19;;;;;;;18.63;12.07;;;;;20.60;101180.00;;;;5068979;28;20995;-70
2022/07/21 05:41:13;;;;;;;19.00;12.70;;;;;20.60;101193.00;;;;5077711;28;20293;-75
2022/07/21 05:43:59;;;;;;;19.20;13.63;;;;;20.60;101195.00;;;;5063876;28;20850;-73
2022/07/21 05:46:45;;;;;;;19.63;13.13;;;;;20.70;101191.00;;;;5055390;28;20239;-73
2022/07/21 05:49:33;;;;;;;22.10;15.67;;;;;20.60;101190.00;;;;5048122;28;20275;-72
2022/07/21 05:52:19;;;;;;;21.77;14.13;;;;;20.70;101183.00;;;;5069301;28;20231;-72
2022/07/21 05:55:09;;;;;;;21.70;15.10;;;;;20.70;101196.00;;;;5074684;28;20592;-73
2022/07/21 05:57:55;;;;;;;23.93;15.37;;;;;20.60;101186.00;;;;5071046;28;20231;-72
2022/07/21 06:00:42;;;;;;;22.90;16.50;;;;;20.70;101181.00;;;;5072508;28;20236;-73
2022/07/21 06:03:28;;;;;;;26.17;16.37;;;;;20.80;101169.00;;;;5086589;28;20298;-72
2022/07/21 06:06:18;;;;;;;23.63;15.73;;;;;20.80;101180.00;;;;5084940;28;20328;-74
2022/07/21 06:09:04;;;;;;;22.87;16.43;;;;;20.80;101177.00;;;;5082972;28;20235;-72
2022/07/21 06:11:51;;;;;;;26.20;17.50;;;;;20.90;101180.00;;;;5073891;28;20358;-73
2022/07/21 06:14:37;;;;;;;26.57;16.53;;;;;21.00;101171.00;;;;5084694;28;20224;-73
2022/07/21 06:17:24;;;;;;;21.47;16.20;;;;;20.90;101176.00;;;;5086460;28;20605;-75
2022/07/21 06:20:11;;;;;;;23.37;15.90;;;;;20.90;101174.00;;;;5084903;28;20774;-72
2022/07/21 06:22:59;;;;;;;20.73;15.60;;;;;20.80;101190.00;;;;5081730;28;20236;-75
2022/07/21 06:25:46;;;;;;;29.30;20.17;;;;;20.80;101184.00;;;;5083986;28;20315;-75
2022/07/21 06:28:32;;;;;;;22.90;17.07;;;;;20.70;101191.00;;;;5071767;28;20282;-76
2022/07/21 06:31:18;;;;;;;25.47;16.60;;;;;20.70;101187.00;;;;5074632;28;20227;-75
2022/07/21 06:34:05;;;;;;;27.67;16.73;;;;;20.80;101200.00;;;;5081538;28;20236;-75
2022/07/21 06:36:51;;;;;;;21.80;16.40;;;;;21.00;101200.00;;;;5081280;28;20597;-73
2022/07/21 06:39:41;;;;;;;23.00;15.80;;;;;20.90;101203.00;;;;5076437;28;20725;-72
2022/07/21 06:42:27;;;;;;;24.07;16.00;;;;;20.80;101196.00;;;;5056585;28;20790;-77
2022/07/21 06:45:14;;;;;;;22.57;16.17;;;;;20.80;101205.00;;;;5060191;28;20303;-74
2022/07/21 06:48:02;;;;;;;24.93;16.20;;;;;21.00;101209.00;;;;5051910;28;20737;-73
2022/07/21 06:50:48;;;;;;;26.83;17.33;;;;;21.00;101204.00;;;;5073825;28;20238;-71
2022/07/21 06:53:35;;;;;;;23.60;16.40;;;;;21.00;101212.00;;;;5073068;28;20313;-73
2022/07/21 06:56:23;;;;;;;25.60;17.40;;;;;21.00;101213.00;;;;5063508;28;20227;-73
2022/07/21 06:59:09;;;;;;;23.93;16.00;;;;;21.10;101211.00;;;;5068438;28;20600;-72
2022/07/21 07:01:56;;;;;;;28.47;20.60;;;;;21.10;101203.00;;;;5060769;28;20724;-70
2022/07/21 07:04:43;;;;;;;25.93;18.00;;;;;21.10;101211.00;;;;5070912;28;20745;-71
2022/07/21 07:07:30;;;;;;;24.83;16.87;;;;;21.20;101219.00;;;;5050040;28;20928;-69
2022/07/21 07:10:16;;;;;;;28.23;17.40;;;;;21.00;101223.00;;;;5086907;28;20923;-72
2022/07/21 07:13:04;;;;;;;22.10;17.20;;;;;21.10;101222.00;;;;5079653;28;20787;-71
2022/07/21 07:16:10;;;;;;;22.03;16.43;;;;;21.20;101224.00;;;;5086463;28;20282;-73
2022/07/21 07:18:56;;;;;;;22.73;15.03;;;;;21.20;101224.00;;;;5088252;28;20607;-73
2022/07/21 07:21:44;;;;;;;19.50;15.90;;;;;21.10;101230.00;;;;5087877;28;20358;-72
2022/07/21 07:24:30;;;;;;;25.07;16.07;;;;;21.10;101238.00;;;;5075873;28;20225;-73
2022/07/21 07:27:16;;;;;;;21.10;15.43;;;;;20.90;101231.00;;;;5085694;28;20229;-73
2022/07/21 07:30:09;;;;;;;24.53;15.83;;;;;20.80;101238.00;;;;5075455;28;20235;-69
2022/07/21 07:32:56;;;;;;;23.87;16.30;;;;;20.90;101241.00;;;;5068310;28;20715;-72
2022/07/21 07:35:42;;;;;;;22.47;16.00;;;;;20.80;101238.00;;;;5066425;28;20291;-69
2022/07/21 07:38:28;;;;;;;24.60;15.50;;;;;20.90;101235.00;;;;5071078;28;20227;-72
2022/07/21 07:41:15;;;;;;;21.47;15.87;;;;;20.90;101240.00;;;;5057807;28;20235;-70
2022/07/21 07:44:02;;;;;;;23.23;15.47;;;;;21.00;101246.00;;;;5064650;28;20320;-73
2022/07/21 07:46:50;;;;;;;21.87;15.47;;;;;20.90;101246.00;;;;5068072;28;20268;-70
2022/07/21 07:49:36;;;;;;;23.13;14.87;;;;;20.90;101236.00;;;;5069787;28;20232;-74
2022/07/21 07:52:22;;;;;;;24.47;15.40;;;;;21.00;101238.00;;;;5066660;28;20382;-72
2022/07/21 07:55:10;;;;;;;21.80;15.27;;;;;21.20;101232.00;;;;5070230;28;20236;-73
2022/07/21 07:57:58;;;;;;;20.50;14.43;;;;;21.40;101231.00;;;;5070556;28;20240;-74
2022/07/21 08:00:44;;;;;;;20.23;14.33;;;;;21.40;101230.00;;;;5080908;28;20282;-73
2022/07/21 08:03:51;;;;;;;19.47;14.80;;;;;21.60;101228.00;;;;5084705;28;20240;-74
2022/07/21 08:06:39;;;;;;;21.50;15.17;;;;;21.60;101229.00;;;;5081605;28;20235;-71
2022/07/21 08:09:25;;;;;;;19.43;13.93;;;;;21.70;101236.00;;;;5082733;28;20309;-73
2022/07/21 08:12:12;;;;;;;18.53;13.47;;;;;21.80;101234.00;;;;5076525;28;20245;-73
2022/07/21 08:14:58;;;;;;;19.20;13.93;;;;;21.80;101227.00;;;;5081613;28;20921;-74
2022/07/21 08:17:45;;;;;;;17.00;13.33;;;;;21.90;101224.00;;;;5080531;28;20287;-73
2022/07/21 08:20:32;;;;;;;18.47;13.90;;;;;21.70;101240.00;;;;5079952;28;20240;-74
2022/07/21 08:23:18;;;;;;;19.73;13.20;;;;;21.80;101225.00;;;;5080013;28;20250;-72
2022/07/21 08:26:05;;;;;;;19.70;14.33;;;;;21.80;101231.00;;;;5081310;28;20242;-73
2022/07/21 08:28:51;;;;;;;21.40;14.90;;;;;21.90;101235.00;;;;5079377;28;20230;-73
2022/07/21 08:31:38;;;;;;;18.23;13.80;;;;;22.00;101230.00;;;;5080161;28;20249;-74
2022/07/21 08:34:24;;;;;;;15.23;12.40;;;;;22.10;101233.00;;;;5088778;28;20267;-72
2022/07/21 08:37:12;;;;;;;16.87;12.30;;;;;22.40;101230.00;;;;5085004;28;20233;-73
2022/07/21 08:39:58;;;;;;;17.33;12.23;;;;;22.40;101229.00;;;;5070249;28;20228;-74
2022/07/21 08:42:47;;;;;;;15.27;11.50;;;;;22.50;101232.00;;;;5056535;27;20234;-73
2022/07/21 08:45:33;;;;;;;16.73;11.63;;;;;22.50;101234.00;;;;5056358;28;20864;-73
2022/07/21 08:48:24;;;;;;;15.77;10.47;;;;;22.70;101233.00;;;;5062517;28;20230;-72
2022/07/21 08:51:13;;;;;;;18.90;10.10;;;;;22.70;101236.00;;;;5063667;28;20223;-73
2022/07/21 08:54:01;;;;;;;14.73;10.33;;;;;22.90;101228.00;;;;5081118;28;20243;-71
2022/07/21 08:56:47;;;;;;;14.03;10.00;;;;;23.00;101233.00;;;;5083087;28;20369;-73
2022/07/21 08:59:34;;;;;;;12.93;9.33;;;;;23.20;101224.00;;;;5078573;28;20225;-74
2022/07/21 09:02:28;;;;;;;16.17;10.00;;;;;23.10;101227.00;;;;5078747;28;20229;-73
2022/07/21 09:05:14;;;;;;;10.57;8.90;;;;;23.00;101228.00;;;;5056093;28;20263;-72
2022/07/21 09:08:01;;;;;;;13.60;9.43;;;;;23.00;101222.00;;;;5063050;28;20219;-72
2022/07/21 09:10:48;;;;;;;11.70;9.40;;;;;22.80;101222.00;;;;5064394;28;20246;-75
2022/07/21 09:13:34;;;;;;;12.50;9.23;;;;;22.60;101220.00;;;;5061625;28;20638;-73
2022/07/21 09:16:34;;;;;;;10.10;8.97;;;;;22.70;101226.00;;;;5058150;28;20273;-75
2022/07/21 09:19:23;;;;;;;11.00;9.30;;;;;22.50;101227.00;;;;5063986;28;20293;-75
2022/07/21 09:22:14;;;;;;;14.93;8.73;;;;;22.60;101233.00;;;;5068211;28;20259;-73
2022/07/21 09:25:00;;;;;;;11.40;8.90;;;;;22.80;101239.00;;;;5054175;28;20283;-72
2022/07/21 09:27:48;;;;;;;13.07;9.13;;;;;22.70;101226.00;;;;5074965;28;20228;-73
2022/07/21 09:30:48;;;;;;;12.77;8.43;;;;;22.70;101230.00;;;;5068748;28;20223;-72
2022/07/21 09:33:36;;;;;;;15.43;9.67;;;;;22.80;101217.00;;;;5053239;28;20300;-71
2022/07/21 09:36:23;;;;;;;10.43;8.17;;;;;22.70;101226.00;;;;5051930;28;20960;-70
2022/07/21 09:39:10;;;;;;;10.13;7.50;;;;;22.90;101232.00;;;;5056435;28;20834;-70
2022/07/21 09:42:13;;;;;;;12.80;7.87;;;;;22.90;101226.00;;;;5054008;28;20235;-73
2022/07/21 09:45:04;;;;;;;12.87;7.20;;;;;23.10;101233.00;;;;5076051;28;20709;-72
2022/07/21 09:47:50;;;;;;;10.60;7.00;;;;;23.50;101219.00;;;;5072600;28;20337;-72
2022/07/21 09:50:36;;;;;;;8.70;7.07;;;;;23.40;101228.00;;;;5071323;28;20719;-72
2022/07/21 09:53:23;;;;;;;10.37;7.07;;;;;23.70;101238.00;;;;5080576;28;20228;-73
2022/07/21 09:56:09;;;;;;;10.33;7.10;;;;;23.70;101235.00;;;;5079049;28;20232;-71
2022/07/21 09:58:58;;;;;;;13.60;7.43;;;;;23.60;101234.00;;;;5077593;28;20216;-72
2022/07/21 10:01:47;;;;;;;8.90;7.20;;;;;23.40;101240.00;;;;5067802;28;20383;-71
2022/07/21 10:04:36;;;;;;;9.27;7.90;;;;;23.60;101233.00;;;;5066390;28;20255;-70
2022/07/21 10:07:45;;;;;;;10.57;7.73;;;;;23.70;101234.00;;;;5052650;28;20363;-69
2022/07/21 10:10:31;;;;;;;12.93;7.43;;;;;23.60;101232.00;;;;5052771;28;20235;-74
2022/07/21 10:13:39;;;;;;;10.97;7.13;;;;;23.70;101241.00;;;;5064785;28;21511;-75
2022/07/21 10:16:26;;;;;;;9.40;7.53;;;;;23.50;101237.00;;;;5053457;28;20229;-74
2022/07/21 10:19:20;;;;;;;8.63;6.93;;;;;23.20;101243.00;;;;5062023;28;20229;-72
2022/07/21 10:22:14;;;;;;;13.37;7.07;;;;;23.20;101249.00;;;;5056685;28;20721;-73
2022/07/21 10:25:01;;;;;;;20.50;12.57;;;;;23.30;101250.00;;;;5078764;28;20378;-76
2022/07/21 10:28:12;;;;;;;9.40;7.70;;;;;23.20;101254.00;;;;5056806;28;20223;-71
2022/07/21 10:31:00;;;;;;;11.50;8.33;;;;;23.50;101245.00;;;;5069179;28;20228;-69
2022/07/21 10:33:55;;;;;;;13.10;8.80;;;;;23.90;101234.00;;;;5073571;28;20283;-71
2022/07/21 10:36:47;;;;;;;12.20;8.97;;;;;23.90;101244.00;;;;5083897;28;20284;-70
2022/07/21 10:39:35;;;;;;;10.10;8.77;;;;;24.00;101237.00;;;;5072922;28;20662;-69
2022/07/21 10:42:21;;;;;;;16.03;9.17;;;;;23.90;101241.00;;;;5074239;28;20306;-68
2022/07/21 10:45:30;;;;;;;8.43;7.53;;;;;24.30;101238.00;;;;5076743;28;20239;-72
2022/07/21 10:48:49;;;;;;;12.87;8.30;;;;;25.00;101243.00;;;;5083877;28;20227;-73
2022/07/21 10:51:37;;;;;;;10.20;7.67;;;;;25.10;101230.00;;;;5074452;28;20278;-72
2022/07/21 10:54:26;;;;;;;8.93;7.80;;;;;25.10;101232.00;;;;5081116;28;20366;-74
2022/07/21 10:57:27;;;;;;;9.97;8.30;;;;;24.90;101226.00;;;;5083633;28;20227;-72
2022/07/21 11:00:22;;;;;;;11.10;7.73;;;;;24.70;101227.00;;;;5084784;28;20269;-74
2022/07/21 11:03:16;;;;;;;9.67;7.50;;;;;24.40;101234.00;;;;5079213;28;20224;-74
2022/07/21 11:06:25;;;;;;;12.27;7.50;;;;;23.90;101241.00;;;;5080457;28;20594;-70
2022/07/21 11:09:16;;;;;;;10.43;8.03;;;;;23.60;101245.00;;;;5064786;28;20436;-72
2022/07/21 11:12:06;;;;;;;13.57;8.00;;;;;23.50;101247.00;;;;5063817;28;20730;-74
2022/07/21 11:14:53;;;;;;;10.67;8.17;;;;;23.20;101249.00;;;;5055160;28;20236;-74
2022/07/21 11:17:40;;;;;;;10.83;8.07;;;;;23.10;101258.00;;;;5072999;28;20708;-71
2022/07/21 11:20:26;;;;;;;12.93;8.87;;;;;22.80;101265.00;;;;5058867;28;20288;-70
2022/07/21 11:23:12;;;;;;;14.57;8.83;;;;;22.60;101273.00;;;;5074552;28;20227;-70
2022/07/21 11:25:59;;;;;;;13.47;9.20;;;;;22.60;101272.00;;;;5062867;28;20911;-72
2022/07/21 11:28:46;;;;;;;13.30;10.03;;;;;22.60;101265.00;;;;5077469;28;20732;-69
2022/07/21 11:31:46;;;;;;;14.20;9.50;;;;;22.70;101265.00;;;;5082490;28;20223;-74
2022/07/21 11:34:45;;;;;;;14.23;9.40;;;;;22.80;101269.00;;;;5074743;28;20228;-73
2022/07/21 11:37:33;;;;;;;10.90;8.83;;;;;22.60;101261.00;;;;5073666;28;20227;-70
2022/07/21 11:40:21;;;;;;;12.60;9.03;;;;;22.60;101271.00;;;;5075942;28;20222;-73
2022/07/21 11:43:07;;;;;;;13.40;9.87;;;;;22.40;101269.00;;;;5083423;28;20755;-74
2022/07/21 11:45:56;;;;;;;14.17;9.90;;;;;22.50;101278.00;;;;5078646;28;20368;-71
2022/07/21 11:48:42;;;;;;;16.70;9.30;;;;;22.40;101272.00;;;;5084103;28;20237;-70
2022/07/21 11:51:28;;;;;;;13.33;9.27;;;;;22.30;101278.00;;;;5080598;28;20598;-69
2022/07/21 11:54:22;;;;;;;12.07;9.67;;;;;22.20;101281.00;;;;5083106;28;20299;-66
2022/07/21 11:57:09;;;;;;;15.33;10.10;;;;;22.20;101278.00;;;;5073806;28;20242;-69
2022/07/21 11:59:58;;;;;;;11.80;8.30;;;;;22.20;101270.00;;;;5080346;28;20315;-70
2022/07/21 12:02:45;;;;;;;12.03;8.57;;;;;22.30;101284.00;;;;5075907;28;20676;-69
2022/07/21 12:05:32;;;;;;;9.80;7.77;;;;;22.10;101276.00;;;;5078764;28;20246;-70
2022/07/21 12:08:18;;;;;;;11.87;7.77;;;;;22.30;101277.00;;;;5068228;28;20276;-67
2022/07/21 12:11:06;;;;;;;8.63;7.17;;;;;22.30;101281.00;;;;5054624;28;21068;-69
2022/07/21 12:13:54;;;;;;;10.57;7.90;;;;;22.40;101274.00;;;;5059751;28;20342;-68
2022/07/21 12:16:49;;;;;;;14.10;9.33;;;;;22.60;101268.00;;;;5060017;28;20242;-71
2022/07/21 12:19:37;;;;;;;10.63;9.13;;;;;22.50;101272.00;;;;5066869;28;20247;-68
2022/07/21 12:22:33;;;;;;;13.10;9.03;;;;;22.40;101271.00;;;;5053520;28;20236;-71
2022/07/21 12:25:31;;;;;;;11.33;8.37;;;;;22.20;101275.00;;;;5054932;28;20634;-68
2022/07/21 12:28:18;;;;;;;11.53;8.40;;;;;22.20;101267.00;;;;5065606;28;20230;-67
2022/07/21 12:31:11;;;;;;;10.70;7.60;;;;;22.20;101271.00;;;;5056898;28;20951;-67
2022/07/21 12:33:57;;;;;;;8.67;7.30;;;;;22.10;101270.00;;;;5054902;28;20251;-65
2022/07/21 12:37:05;;;;;;;9.53;7.87;;;;;22.10;101273.00;;;;5057363;28;20298;-67
2022/07/21 12:40:12;;;;;;;8.10;7.20;;;;;22.10;101270.00;;;;5056171;28;20677;-69
2022/07/21 12:43:10;;;;;;;10.53;7.37;;;;;22.10;101268.00;;;;5056386;28;20238;-70
2022/07/21 12:45:58;;;;;;;9.27;7.50;;;;;22.20;101272.00;;;;5057019;28;20246;-68
2022/07/21 12:48:44;;;;;;;8.50;6.77;;;;;22.10;101271.00;;;;5057825;28;20229;-68
2022/07/21 12:51:30;;;;;;;7.93;6.43;;;;;22.00;101273.00;;;;5067595;28;20319;-69
2022/07/21 12:54:18;;;;;;;9.13;6.70;;;;;22.00;101268.00;;;;5072752;28;20246;-68
2022/07/21 12:57:04;;;;;;;7.60;6.30;;;;;22.10;101270.00;;;;5077935;28;20901;-66
2022/07/21 12:59:56;;;;;;;6.90;6.17;;;;;22.10;101268.00;;;;5069811;28;20237;-70
2022/07/21 13:02:50;;;;;;;6.73;5.63;;;;;22.00;101275.00;;;;5075716;28;20276;-70
2022/07/21 13:05:37;;;;;;;10.73;8.40;;;;;22.10;101270.00;;;;5069574;28;20243;-68
2022/07/21 13:08:23;;;;;;;10.57;6.70;;;;;21.90;101253.00;;;;5076939;28;20586;-69
2022/07/21 13:11:18;;;;;;;4.83;4.10;;;;;21.70;101273.00;;;;5078382;28;20719;-71
2022/07/21 13:14:04;;;;;;;6.47;3.23;;;;;21.70;101268.00;;;;5076093;28;20311;-70
2022/07/21 13:16:52;;;;;;;2.80;2.60;;;;;21.80;101269.00;;;;5079858;28;20259;-68
2022/07/21 13:19:38;;;;;;;3.23;2.60;;;;;21.80;101257.00;;;;5078223;28;20226;-68
2022/07/21 13:22:25;;;;;;;2.77;2.57;;;;;21.80;101266.00;;;;5081677;28;20242;-67
2022/07/21 13:25:12;;;;;;;2.90;2.50;;;;;21.90;101259.00;;;;5069603;28;20237;-68
2022/07/21 13:28:00;;;;;;;3.80;3.10;;;;;22.20;101263.00;;;;5083287;28;20257;-67
2022/07/21 13:30:47;;;;;;;3.00;2.50;;;;;22.20;101258.00;;;;5078578;28;20343;-69
2022/07/21 13:33:33;;;;;;;3.17;2.87;;;;;22.30;101263.00;;;;5077040;28;20723;-71
2022/07/21 13:36:19;;;;;;;3.67;3.37;;;;;22.40;101259.00;;;;5086055;28;20227;-68
2022/07/21 13:39:06;;;;;;;3.93;3.53;;;;;22.40;101267.00;;;;5080487;28;20240;-69
2022/07/21 13:42:13;;;;;;;4.07;3.67;;;;;22.20;101275.00;;;;5061358;28;20254;-69